SPALE EPOM-EPPL
Flight info
| Callsign | SPALE |
|---|---|
| Flight time | 0h 51m |
| Altitude | 5000 |
| Route | EPOM/11R DCT EPOME DCT EPLYD DCT EPPLW DCT EPPL/12 |
| Aircraft | C152/L-SDF/C |
Departure
| Time | 2026-05-04 18:20 |
|---|---|
| Airport | Ostrów Wielkopolski Michałków Airfield (EPOM) |
Arrival
| Time | 2026-05-04 19:12 |
|---|---|
| Airport | Płock Airfield (EPPL) |
| Time | Latitude | Longitude | Altitude | Speed | Heading |
|---|---|---|---|---|---|
| 2026-05-04 18:11 | 51.69858 | 17.84745 | 468 ft | 0 kts | 271° |
| 2026-05-04 18:17 | 51.69867 | 17.84718 | 468 ft | 8 kts | 305° |
| 2026-05-04 18:18 | 51.69905 | 17.84630 | 470 ft | 9 kts | 304° |
| 2026-05-04 18:18 | 51.69939 | 17.84548 | 470 ft | 12 kts | 302° |
| 2026-05-04 18:18 | 51.70005 | 17.84388 | 472 ft | 22 kts | 306° |
| 2026-05-04 18:18 | 51.70096 | 17.84165 | 479 ft | 25 kts | 304° |
| 2026-05-04 18:19 | 51.70239 | 17.84055 | 484 ft | 6 kts | 90° |
| 2026-05-04 18:19 | 51.70179 | 17.84251 | 481 ft | 43 kts | 114° |
| 2026-05-04 18:19 | 51.70013 | 17.84874 | 535 ft | 70 kts | 110° |
| 2026-05-04 18:20 | 51.69847 | 17.85606 | 697 ft | 72 kts | 102° |
| 2026-05-04 18:20 | 51.69773 | 17.86392 | 881 ft | 67 kts | 95° |
| 2026-05-04 18:20 | 51.69748 | 17.87225 | 919 ft | 86 kts | 84° |
| 2026-05-04 18:20 | 51.69790 | 17.88077 | 1175 ft | 67 kts | 81° |
| 2026-05-04 18:21 | 51.69931 | 17.88817 | 1296 ft | 74 kts | 66° |
| 2026-05-04 18:21 | 51.70099 | 17.89569 | 1494 ft | 71 kts | 66° |
| 2026-05-04 18:21 | 51.70281 | 17.90328 | 1637 ft | 76 kts | 67° |
| 2026-05-04 18:21 | 51.70513 | 17.91173 | 1702 ft | 87 kts | 62° |
| 2026-05-04 18:22 | 51.70695 | 17.92130 | 1781 ft | 93 kts | 74° |
| 2026-05-04 18:22 | 51.70800 | 17.93170 | 1845 ft | 96 kts | 85° |
| 2026-05-04 18:22 | 51.70830 | 17.94242 | 1941 ft | 96 kts | 86° |
| 2026-05-04 18:22 | 51.70842 | 17.95329 | 2013 ft | 99 kts | 86° |
| 2026-05-04 18:23 | 51.70845 | 17.96417 | 2159 ft | 95 kts | 88° |
| 2026-05-04 18:23 | 51.70841 | 17.97442 | 2326 ft | 91 kts | 83° |
| 2026-05-04 18:23 | 51.71047 | 17.98355 | 2484 ft | 85 kts | 48° |
| 2026-05-04 18:23 | 51.71445 | 17.99082 | 2603 ft | 87 kts | 45° |
| 2026-05-04 18:24 | 51.71861 | 17.99809 | 2723 ft | 88 kts | 45° |
| 2026-05-04 18:24 | 51.72270 | 18.00530 | 2861 ft | 88 kts | 45° |
| 2026-05-04 18:24 | 51.72684 | 18.01244 | 2990 ft | 88 kts | 42° |
| 2026-05-04 18:24 | 51.73134 | 18.01915 | 3136 ft | 86 kts | 40° |
| 2026-05-04 18:25 | 51.73578 | 18.02567 | 3277 ft | 86 kts | 40° |
| 2026-05-04 18:25 | 51.74020 | 18.03186 | 3427 ft | 85 kts | 36° |
| 2026-05-04 18:25 | 51.74508 | 18.03728 | 3567 ft | 85 kts | 28° |
| 2026-05-04 18:25 | 51.75027 | 18.04229 | 3677 ft | 90 kts | 32° |
| 2026-05-04 18:26 | 51.75557 | 18.04855 | 3732 ft | 97 kts | 36° |
| 2026-05-04 18:26 | 51.75987 | 18.05666 | 3859 ft | 94 kts | 51° |
| 2026-05-04 18:26 | 51.76389 | 18.06491 | 3982 ft | 95 kts | 50° |
| 2026-05-04 18:26 | 51.76841 | 18.07302 | 4047 ft | 98 kts | 47° |
| 2026-05-04 18:27 | 51.77293 | 18.08138 | 4131 ft | 99 kts | 50° |
| 2026-05-04 18:27 | 51.77713 | 18.08997 | 4262 ft | 95 kts | 52° |
| 2026-05-04 18:27 | 51.78110 | 18.09830 | 4401 ft | 92 kts | 53° |
| 2026-05-04 18:27 | 51.78369 | 18.10380 | 4468 ft | 94 kts | 51° |
| 2026-05-04 18:28 | 51.78819 | 18.11203 | 4517 ft | 99 kts | 50° |
| 2026-05-04 18:28 | 51.79240 | 18.12083 | 4604 ft | 99 kts | 54° |
| 2026-05-04 18:28 | 51.79771 | 18.13303 | 4671 ft | 104 kts | 54° |
| 2026-05-04 18:28 | 51.80230 | 18.14254 | 4685 ft | 107 kts | 53° |
| 2026-05-04 18:29 | 51.80673 | 18.15222 | 4695 ft | 109 kts | 54° |
| 2026-05-04 18:29 | 51.80966 | 18.15887 | 4730 ft | 107 kts | 55° |
| 2026-05-04 18:29 | 51.81371 | 18.16841 | 4852 ft | 100 kts | 58° |
| 2026-05-04 18:29 | 51.81729 | 18.17798 | 4949 ft | 99 kts | 60° |
| 2026-05-04 18:30 | 51.82541 | 18.19654 | 5017 ft | 107 kts | 49° |
| 2026-05-04 18:30 | 51.83029 | 18.20579 | 5023 ft | 110 kts | 50° |
| 2026-05-04 18:30 | 51.83521 | 18.21551 | 5000 ft | 113 kts | 52° |
| 2026-05-04 18:31 | 51.83996 | 18.22580 | 4947 ft | 115 kts | 56° |
| 2026-05-04 18:31 | 51.84423 | 18.23666 | 4882 ft | 117 kts | 60° |
| 2026-05-04 18:31 | 51.84816 | 18.24815 | 4829 ft | 117 kts | 64° |
| 2026-05-04 18:31 | 51.85146 | 18.26005 | 4803 ft | 115 kts | 69° |
| 2026-05-04 18:32 | 51.85420 | 18.27203 | 4801 ft | 113 kts | 72° |
| 2026-05-04 18:32 | 51.85667 | 18.28411 | 4776 ft | 113 kts | 74° |
| 2026-05-04 18:32 | 51.85884 | 18.29634 | 4775 ft | 112 kts | 76° |
| 2026-05-04 18:32 | 51.86063 | 18.30854 | 4776 ft | 111 kts | 79° |
| 2026-05-04 18:33 | 51.86239 | 18.32038 | 4846 ft | 106 kts | 76° |
| 2026-05-04 18:33 | 51.86433 | 18.33199 | 4871 ft | 107 kts | 76° |
| 2026-05-04 18:33 | 51.86626 | 18.34333 | 4960 ft | 103 kts | 75° |
| 2026-05-04 18:33 | 51.86835 | 18.35435 | 4996 ft | 105 kts | 73° |
| 2026-05-04 18:34 | 51.87074 | 18.36563 | 5039 ft | 105 kts | 72° |
| 2026-05-04 18:34 | 51.87342 | 18.37665 | 5076 ft | 107 kts | 69° |
| 2026-05-04 18:34 | 51.87624 | 18.38801 | 5065 ft | 111 kts | 69° |
| 2026-05-04 18:34 | 51.87911 | 18.39984 | 5027 ft | 115 kts | 72° |
| 2026-05-04 18:35 | 51.88183 | 18.41199 | 5014 ft | 113 kts | 64° |
| 2026-05-04 18:35 | 51.88587 | 18.42258 | 5067 ft | 110 kts | 58° |
| 2026-05-04 18:35 | 51.89011 | 18.43293 | 5073 ft | 111 kts | 57° |
| 2026-05-04 18:35 | 51.89440 | 18.44338 | 5044 ft | 114 kts | 57° |
| 2026-05-04 18:36 | 51.89865 | 18.45444 | 4999 ft | 116 kts | 60° |
| 2026-05-04 18:36 | 51.90259 | 18.46582 | 4993 ft | 113 kts | 62° |
| 2026-05-04 18:36 | 51.90631 | 18.47680 | 5035 ft | 110 kts | 63° |
| 2026-05-04 18:36 | 51.90989 | 18.48788 | 5038 ft | 112 kts | 64° |
| 2026-05-04 18:37 | 51.91348 | 18.49920 | 5028 ft | 113 kts | 63° |
| 2026-05-04 18:37 | 51.91708 | 18.51060 | 5011 ft | 114 kts | 65° |
| 2026-05-04 18:37 | 51.92062 | 18.52217 | 4991 ft | 115 kts | 63° |
| 2026-05-04 18:37 | 51.92423 | 18.53357 | 4999 ft | 112 kts | 65° |
| 2026-05-04 18:38 | 51.92764 | 18.54482 | 5025 ft | 111 kts | 64° |
| 2026-05-04 18:38 | 51.93125 | 18.55559 | 5098 ft | 107 kts | 61° |
| 2026-05-04 18:38 | 51.93491 | 18.56610 | 5127 ft | 109 kts | 61° |
| 2026-05-04 18:38 | 51.93887 | 18.57662 | 5104 ft | 113 kts | 58° |
| 2026-05-04 18:39 | 51.94323 | 18.58746 | 5062 ft | 116 kts | 57° |
| 2026-05-04 18:39 | 51.94763 | 18.59861 | 5030 ft | 115 kts | 57° |
| 2026-05-04 18:39 | 51.95213 | 18.60903 | 5042 ft | 113 kts | 54° |
| 2026-05-04 18:39 | 51.95683 | 18.61935 | 5028 ft | 114 kts | 52° |
| 2026-05-04 18:40 | 51.96179 | 18.62937 | 5018 ft | 115 kts | 51° |
| 2026-05-04 18:40 | 51.96688 | 18.63946 | 4985 ft | 116 kts | 51° |
| 2026-05-04 18:40 | 51.97188 | 18.64969 | 4962 ft | 116 kts | 52° |
| 2026-05-04 18:40 | 51.97681 | 18.66010 | 4931 ft | 116 kts | 50° |
| 2026-05-04 18:41 | 51.98200 | 18.67001 | 4892 ft | 117 kts | 50° |
| 2026-05-04 18:41 | 51.98724 | 18.68024 | 4847 ft | 118 kts | 50° |
| 2026-05-04 18:41 | 51.99247 | 18.69054 | 4799 ft | 118 kts | 50° |
| 2026-05-04 18:41 | 51.99757 | 18.70093 | 4776 ft | 117 kts | 53° |
| 2026-05-04 18:42 | 52.00245 | 18.71149 | 4739 ft | 117 kts | 52° |
| 2026-05-04 18:42 | 52.00742 | 18.72196 | 4702 ft | 118 kts | 53° |
| 2026-05-04 18:42 | 52.01208 | 18.73248 | 4773 ft | 109 kts | 54° |
| 2026-05-04 18:42 | 52.01650 | 18.74204 | 4865 ft | 105 kts | 52° |
| 2026-05-04 18:43 | 52.02116 | 18.75130 | 4910 ft | 107 kts | 50° |
| 2026-05-04 18:43 | 52.02594 | 18.76057 | 4928 ft | 110 kts | 50° |
| 2026-05-04 18:43 | 52.03126 | 18.76964 | 4914 ft | 113 kts | 45° |
| 2026-05-04 18:43 | 52.03681 | 18.77887 | 4901 ft | 114 kts | 46° |
| 2026-05-04 18:44 | 52.04222 | 18.78827 | 4906 ft | 113 kts | 47° |
| 2026-05-04 18:44 | 52.04567 | 18.79456 | 4910 ft | 113 kts | 49° |
| 2026-05-04 18:44 | 52.05259 | 18.80758 | 4883 ft | 115 kts | 49° |
| 2026-05-04 18:44 | 52.05770 | 18.81768 | 4870 ft | 115 kts | 51° |
| 2026-05-04 18:45 | 52.06238 | 18.82800 | 4888 ft | 113 kts | 55° |
| 2026-05-04 18:45 | 52.06676 | 18.83862 | 4878 ft | 114 kts | 57° |
| 2026-05-04 18:45 | 52.07111 | 18.84901 | 4901 ft | 111 kts | 53° |
| 2026-05-04 18:45 | 52.07604 | 18.85855 | 4940 ft | 109 kts | 44° |
| 2026-05-04 18:46 | 52.08140 | 18.86714 | 4980 ft | 109 kts | 43° |
| 2026-05-04 18:46 | 52.08673 | 18.87559 | 5055 ft | 105 kts | 44° |
| 2026-05-04 18:46 | 52.09193 | 18.88393 | 5116 ft | 105 kts | 43° |
| 2026-05-04 18:46 | 52.09732 | 18.89210 | 5149 ft | 107 kts | 41° |
| 2026-05-04 18:47 | 52.10298 | 18.90026 | 5156 ft | 111 kts | 40° |
| 2026-05-04 18:47 | 52.10898 | 18.90842 | 5134 ft | 113 kts | 39° |
| 2026-05-04 18:47 | 52.11496 | 18.91651 | 5158 ft | 112 kts | 39° |
| 2026-05-04 18:47 | 52.12078 | 18.92478 | 5136 ft | 114 kts | 41° |
| 2026-05-04 18:48 | 52.12655 | 18.93372 | 5118 ft | 114 kts | 44° |
| 2026-05-04 18:48 | 52.13211 | 18.94278 | 5117 ft | 113 kts | 45° |
| 2026-05-04 18:48 | 52.13750 | 18.95216 | 5108 ft | 113 kts | 46° |
| 2026-05-04 18:48 | 52.14282 | 18.96166 | 5095 ft | 114 kts | 48° |
| 2026-05-04 18:49 | 52.14805 | 18.97147 | 5062 ft | 115 kts | 49° |
| 2026-05-04 18:49 | 52.15319 | 18.98151 | 5026 ft | 115 kts | 50° |
| 2026-05-04 18:49 | 52.15810 | 18.99160 | 5054 ft | 112 kts | 51° |
| 2026-05-04 18:49 | 52.16286 | 19.00137 | 5085 ft | 110 kts | 51° |
| 2026-05-04 18:50 | 52.16765 | 19.01119 | 5082 ft | 111 kts | 50° |
| 2026-05-04 18:50 | 52.17264 | 19.02101 | 5053 ft | 114 kts | 50° |
| 2026-05-04 18:50 | 52.17818 | 19.02996 | 5006 ft | 115 kts | 37° |
| 2026-05-04 18:50 | 52.18451 | 19.03812 | 4975 ft | 115 kts | 37° |
| 2026-05-04 18:51 | 52.19055 | 19.04616 | 5016 ft | 111 kts | 39° |
| 2026-05-04 18:51 | 52.19610 | 19.05441 | 5096 ft | 106 kts | 42° |
| 2026-05-04 18:51 | 52.20156 | 19.06245 | 5144 ft | 106 kts | 41° |
| 2026-05-04 18:51 | 52.20706 | 19.07063 | 5179 ft | 108 kts | 41° |
| 2026-05-04 18:52 | 52.21266 | 19.07894 | 5192 ft | 110 kts | 42° |
| 2026-05-04 18:52 | 52.21821 | 19.08737 | 5232 ft | 109 kts | 42° |
| 2026-05-04 18:52 | 52.22378 | 19.09594 | 5243 ft | 111 kts | 44° |
| 2026-05-04 18:52 | 52.22903 | 19.10477 | 5284 ft | 110 kts | 47° |
| 2026-05-04 18:53 | 52.23422 | 19.11393 | 5303 ft | 110 kts | 44° |
| 2026-05-04 18:53 | 52.23971 | 19.12277 | 5320 ft | 110 kts | 43° |
| 2026-05-04 18:53 | 52.24525 | 19.13124 | 5372 ft | 108 kts | 41° |
| 2026-05-04 18:53 | 52.25086 | 19.13929 | 5431 ft | 107 kts | 40° |
| 2026-05-04 18:54 | 52.25671 | 19.14716 | 5428 ft | 111 kts | 38° |
| 2026-05-04 18:54 | 52.26284 | 19.15508 | 5409 ft | 113 kts | 38° |
| 2026-05-04 18:54 | 52.26892 | 19.16343 | 5363 ft | 115 kts | 41° |
| 2026-05-04 18:54 | 52.27482 | 19.17251 | 5307 ft | 118 kts | 43° |
| 2026-05-04 18:55 | 52.28071 | 19.18166 | 5238 ft | 119 kts | 44° |
| 2026-05-04 18:55 | 52.29221 | 19.20117 | 5094 ft | 119 kts | 48° |
| 2026-05-04 18:55 | 52.29752 | 19.21149 | 5039 ft | 118 kts | 50° |
| 2026-05-04 18:56 | 52.30277 | 19.22165 | 5007 ft | 117 kts | 49° |
| 2026-05-04 18:56 | 52.30799 | 19.23181 | 4958 ft | 117 kts | 49° |
| 2026-05-04 18:56 | 52.31338 | 19.24177 | 4908 ft | 117 kts | 45° |
| 2026-05-04 18:56 | 52.31905 | 19.25109 | 4889 ft | 115 kts | 44° |
| 2026-05-04 18:57 | 52.32453 | 19.26062 | 4875 ft | 114 kts | 47° |
| 2026-05-04 18:57 | 52.32953 | 19.26990 | 4977 ft | 106 kts | 48° |
| 2026-05-04 18:57 | 52.33448 | 19.27865 | 5063 ft | 102 kts | 43° |
| 2026-05-04 18:57 | 52.33992 | 19.28609 | 5106 ft | 106 kts | 34° |
| 2026-05-04 18:58 | 52.34639 | 19.29313 | 4995 ft | 117 kts | 32° |
| 2026-05-04 18:58 | 52.35327 | 19.30070 | 4876 ft | 121 kts | 35° |
| 2026-05-04 18:58 | 52.36007 | 19.30883 | 4776 ft | 121 kts | 36° |
| 2026-05-04 18:58 | 52.36682 | 19.31691 | 4695 ft | 119 kts | 35° |
| 2026-05-04 18:59 | 52.37321 | 19.32525 | 4649 ft | 117 kts | 39° |
| 2026-05-04 18:59 | 52.37916 | 19.33433 | 4600 ft | 117 kts | 45° |
| 2026-05-04 18:59 | 52.38467 | 19.34416 | 4544 ft | 117 kts | 44° |
| 2026-05-04 18:59 | 52.39043 | 19.35353 | 4497 ft | 117 kts | 43° |
| 2026-05-04 19:00 | 52.39593 | 19.36307 | 4438 ft | 117 kts | 48° |
| 2026-05-04 19:00 | 52.40132 | 19.37323 | 4329 ft | 119 kts | 47° |
| 2026-05-04 19:00 | 52.40679 | 19.38344 | 4265 ft | 118 kts | 46° |
| 2026-05-04 19:00 | 52.41237 | 19.39306 | 4226 ft | 116 kts | 43° |
| 2026-05-04 19:01 | 52.41805 | 19.40234 | 4182 ft | 115 kts | 44° |
| 2026-05-04 19:01 | 52.42377 | 19.41176 | 4086 ft | 118 kts | 44° |
| 2026-05-04 19:01 | 52.42963 | 19.42120 | 4005 ft | 118 kts | 44° |
| 2026-05-04 19:01 | 52.43519 | 19.43111 | 3935 ft | 118 kts | 45° |
| 2026-05-04 19:02 | 52.44066 | 19.44075 | 3877 ft | 117 kts | 45° |
| 2026-05-04 19:02 | 52.44600 | 19.45077 | 3809 ft | 117 kts | 51° |
| 2026-05-04 19:02 | 52.45060 | 19.46184 | 3739 ft | 118 kts | 57° |
| 2026-05-04 19:02 | 52.45463 | 19.47354 | 3675 ft | 118 kts | 60° |
| 2026-05-04 19:03 | 52.45831 | 19.48520 | 3679 ft | 113 kts | 62° |
| 2026-05-04 19:03 | 52.46212 | 19.49669 | 3639 ft | 114 kts | 55° |
| 2026-05-04 19:03 | 52.46707 | 19.50659 | 3620 ft | 112 kts | 46° |
| 2026-05-04 19:03 | 52.47224 | 19.51630 | 3594 ft | 113 kts | 48° |
| 2026-05-04 19:04 | 52.47772 | 19.52541 | 3536 ft | 114 kts | 39° |
| 2026-05-04 19:04 | 52.48379 | 19.53391 | 3472 ft | 115 kts | 37° |
| 2026-05-04 19:04 | 52.48993 | 19.54186 | 3440 ft | 112 kts | 35° |
| 2026-05-04 19:04 | 52.49605 | 19.54964 | 3421 ft | 112 kts | 35° |
| 2026-05-04 19:05 | 52.50254 | 19.55779 | 3240 ft | 121 kts | 34° |
| 2026-05-04 19:05 | 52.50925 | 19.56633 | 3081 ft | 122 kts | 36° |
| 2026-05-04 19:05 | 52.51558 | 19.57539 | 2971 ft | 119 kts | 39° |
| 2026-05-04 19:05 | 52.52158 | 19.58461 | 2866 ft | 118 kts | 37° |
| 2026-05-04 19:06 | 52.52787 | 19.59309 | 2758 ft | 116 kts | 37° |
| 2026-05-04 19:06 | 52.53419 | 19.60130 | 2659 ft | 115 kts | 34° |
| 2026-05-04 19:06 | 52.54002 | 19.60951 | 2675 ft | 110 kts | 39° |
| 2026-05-04 19:06 | 52.54548 | 19.61849 | 2625 ft | 113 kts | 39° |
| 2026-05-04 19:07 | 52.55132 | 19.62729 | 2549 ft | 114 kts | 39° |
| 2026-05-04 19:07 | 52.55664 | 19.63589 | 2497 ft | 113 kts | 43° |
| 2026-05-04 19:07 | 52.56233 | 19.64573 | 2128 ft | 128 kts | 43° |
| 2026-05-04 19:07 | 52.56812 | 19.65703 | 1798 ft | 129 kts | 48° |
| 2026-05-04 19:08 | 52.57281 | 19.66933 | 1569 ft | 127 kts | 67° |
| 2026-05-04 19:08 | 52.57197 | 19.68353 | 1378 ft | 129 kts | 116° |
| 2026-05-04 19:08 | 52.56754 | 19.69582 | 1287 ft | 124 kts | 118° |
| 2026-05-04 19:08 | 52.56358 | 19.70856 | 1184 ft | 125 kts | 112° |
| 2026-05-04 19:09 | 52.55991 | 19.72160 | 1028 ft | 125 kts | 117° |
| 2026-05-04 19:09 | 52.55575 | 19.73318 | 1060 ft | 114 kts | 121° |
| 2026-05-04 19:09 | 52.55195 | 19.74416 | 1112 ft | 110 kts | 97° |
| 2026-05-04 19:09 | 52.55548 | 19.75420 | 1099 ft | 106 kts | 30° |
| 2026-05-04 19:10 | 52.56234 | 19.75954 | 989 ft | 110 kts | 20° |
| 2026-05-04 19:10 | 52.56788 | 19.75674 | 1048 ft | 97 kts | 284° |
| 2026-05-04 19:10 | 52.56826 | 19.74568 | 1074 ft | 93 kts | 275° |
| 2026-05-04 19:10 | 52.57110 | 19.73728 | 1088 ft | 85 kts | 315° |
| 2026-05-04 19:11 | 52.57502 | 19.72997 | 1079 ft | 87 kts | 309° |
| 2026-05-04 19:11 | 52.57776 | 19.72239 | 1117 ft | 70 kts | 276° |
| 2026-05-04 19:11 | 52.57537 | 19.71546 | 1138 ft | 72 kts | 237° |
| 2026-05-04 19:11 | 52.57186 | 19.70889 | 1069 ft | 83 kts | 223° |
| 2026-05-04 19:12 | 52.56588 | 19.70868 | 782 ft | 102 kts | 160° |
| 2026-05-04 19:12 | 52.55811 | 19.72090 | 333 ft | 42 kts | 124° |
| 2026-05-04 19:12 | 52.55836 | 19.72314 | 333 ft | 0 kts | 21° |